sensor_id;sensor_type;location;lat;lon;timestamp;pressure;altitude;pressure_sealevel;temperature;humidity
11468;BME280;5790;42.762;23.430;2024-03-07T00:02:17;61465.97;;;-142.67;100.00
11468;BME280;5790;42.762;23.430;2024-03-07T00:04:44;61465.97;;;-142.67;100.00
11468;BME280;5790;42.762;23.430;2024-03-07T00:07:12;61465.97;;;-142.67;100.00
11468;BME280;5790;42.762;23.430;2024-03-07T00:09:39;61465.97;;;-142.67;100.00
11468;BME280;5790;42.762;23.430;2024-03-07T00:12:07;61465.97;;;-142.67;100.00
11468;BME280;5790;42.762;23.430;2024-03-07T00:14:34;61465.97;;;-142.67;100.00
11468;BME280;5790;42.762;23.430;2024-03-07T00:17:03;61465.97;;;-142.67;100.00
11468;BME280;5790;42.762;23.430;2024-03-07T00:19:30;61465.97;;;-142.67;100.00
11468;BME280;5790;42.762;23.430;2024-03-07T00:21:57;61465.97;;;-142.67;100.00
11468;BME280;5790;42.762;23.430;2024-03-07T00:24:25;61465.97;;;-142.67;100.00
11468;BME280;5790;42.762;23.430;2024-03-07T00:26:53;61465.97;;;-142.67;100.00
11468;BME280;5790;42.762;23.430;2024-03-07T00:29:20;61465.97;;;-142.67;100.00
11468;BME280;5790;42.762;23.430;2024-03-07T00:31:47;61465.97;;;-142.67;100.00
11468;BME280;5790;42.762;23.430;2024-03-07T00:34:15;61465.97;;;-142.67;100.00
11468;BME280;5790;42.762;23.430;2024-03-07T00:36:44;61465.97;;;-142.67;100.00
11468;BME280;5790;42.762;23.430;2024-03-07T00:39:11;61465.97;;;-142.67;100.00
11468;BME280;5790;42.762;23.430;2024-03-07T00:41:38;61465.97;;;-142.67;100.00
11468;BME280;5790;42.762;23.430;2024-03-07T00:44:06;61465.97;;;-142.67;100.00
11468;BME280;5790;42.762;23.430;2024-03-07T00:46:34;61465.97;;;-142.67;100.00
11468;BME280;5790;42.762;23.430;2024-03-07T00:49:01;61465.97;;;-142.67;100.00
11468;BME280;5790;42.762;23.430;2024-03-07T00:51:29;61465.97;;;-142.67;100.00
11468;BME280;5790;42.762;23.430;2024-03-07T00:53:57;61465.97;;;-142.67;100.00
11468;BME280;5790;42.762;23.430;2024-03-07T00:56:24;61465.97;;;-142.67;100.00
11468;BME280;5790;42.762;23.430;2024-03-07T00:58:51;61465.97;;;-142.67;100.00
11468;BME280;5790;42.762;23.430;2024-03-07T01:01:18;61465.97;;;-142.67;100.00
11468;BME280;5790;42.762;23.430;2024-03-07T01:03:45;61465.97;;;-142.67;100.00
11468;BME280;5790;42.762;23.430;2024-03-07T01:06:12;61465.97;;;-142.67;100.00
11468;BME280;5790;42.762;23.430;2024-03-07T01:08:41;61465.97;;;-142.67;100.00
11468;BME280;5790;42.762;23.430;2024-03-07T01:11:08;61465.97;;;-142.67;100.00
11468;BME280;5790;42.762;23.430;2024-03-07T01:13:37;61465.97;;;-142.67;100.00
11468;BME280;5790;42.762;23.430;2024-03-07T01:16:05;61465.97;;;-142.67;100.00
11468;BME280;5790;42.762;23.430;2024-03-07T01:18:32;61465.97;;;-142.67;100.00
11468;BME280;5790;42.762;23.430;2024-03-07T01:20:59;61465.97;;;-142.67;100.00
11468;BME280;5790;42.762;23.430;2024-03-07T01:23:27;61465.97;;;-142.67;100.00
11468;BME280;5790;42.762;23.430;2024-03-07T01:25:57;61465.97;;;-142.67;100.00
11468;BME280;5790;42.762;23.430;2024-03-07T01:28:24;61465.97;;;-142.67;100.00
11468;BME280;5790;42.762;23.430;2024-03-07T01:30:51;61465.97;;;-142.67;100.00
11468;BME280;5790;42.762;23.430;2024-03-07T01:33:18;61465.97;;;-142.67;100.00
11468;BME280;5790;42.762;23.430;2024-03-07T01:35:46;61465.97;;;-142.67;100.00
11468;BME280;5790;42.762;23.430;2024-03-07T01:38:13;61465.97;;;-142.67;100.00
11468;BME280;5790;42.762;23.430;2024-03-07T01:40:40;61465.97;;;-142.67;100.00
11468;BME280;5790;42.762;23.430;2024-03-07T01:43:09;61465.97;;;-142.67;100.00
11468;BME280;5790;42.762;23.430;2024-03-07T01:45:37;61465.97;;;-142.67;100.00
11468;BME280;5790;42.762;23.430;2024-03-07T01:48:04;61465.97;;;-142.67;100.00
11468;BME280;5790;42.762;23.430;2024-03-07T01:50:32;61465.97;;;-142.67;100.00
11468;BME280;5790;42.762;23.430;2024-03-07T01:52:59;61465.97;;;-142.67;100.00
11468;BME280;5790;42.762;23.430;2024-03-07T01:55:27;61465.97;;;-142.67;100.00
11468;BME280;5790;42.762;23.430;2024-03-07T01:57:56;61465.97;;;-142.67;100.00
11468;BME280;5790;42.762;23.430;2024-03-07T02:00:27;61465.97;;;-142.67;100.00
11468;BME280;5790;42.762;23.430;2024-03-07T02:02:54;61465.97;;;-142.67;100.00
11468;BME280;5790;42.762;23.430;2024-03-07T02:05:21;61465.97;;;-142.67;100.00
11468;BME280;5790;42.762;23.430;2024-03-07T02:07:49;61465.97;;;-142.67;100.00
11468;BME280;5790;42.762;23.430;2024-03-07T02:10:16;61465.97;;;-142.67;100.00
11468;BME280;5790;42.762;23.430;2024-03-07T02:12:44;61465.97;;;-142.67;100.00
11468;BME280;5790;42.762;23.430;2024-03-07T02:15:11;61465.97;;;-142.67;100.00
11468;BME280;5790;42.762;23.430;2024-03-07T02:17:41;61465.97;;;-142.67;100.00
11468;BME280;5790;42.762;23.430;2024-03-07T02:20:09;61465.97;;;-142.67;100.00
11468;BME280;5790;42.762;23.430;2024-03-07T02:22:40;61465.97;;;-142.67;100.00
11468;BME280;5790;42.762;23.430;2024-03-07T02:25:07;61465.97;;;-142.67;100.00
11468;BME280;5790;42.762;23.430;2024-03-07T02:27:36;61465.97;;;-142.67;100.00
11468;BME280;5790;42.762;23.430;2024-03-07T02:30:03;61465.97;;;-142.67;100.00
11468;BME280;5790;42.762;23.430;2024-03-07T02:32:33;61465.97;;;-142.67;100.00
11468;BME280;5790;42.762;23.430;2024-03-07T02:35:03;61465.97;;;-142.67;100.00
11468;BME280;5790;42.762;23.430;2024-03-07T02:37:30;61465.97;;;-142.67;100.00
11468;BME280;5790;42.762;23.430;2024-03-07T02:39:58;61465.97;;;-142.67;100.00
11468;BME280;5790;42.762;23.430;2024-03-07T02:42:26;61465.97;;;-142.67;100.00
11468;BME280;5790;42.762;23.430;2024-03-07T02:44:52;61465.97;;;-142.67;100.00
11468;BME280;5790;42.762;23.430;2024-03-07T02:47:20;61465.97;;;-142.67;100.00
11468;BME280;5790;42.762;23.430;2024-03-07T02:49:49;61465.97;;;-142.67;100.00
11468;BME280;5790;42.762;23.430;2024-03-07T02:52:16;61465.97;;;-142.67;100.00
11468;BME280;5790;42.762;23.430;2024-03-07T02:54:43;61465.97;;;-142.67;100.00
11468;BME280;5790;42.762;23.430;2024-03-07T02:57:11;61465.97;;;-142.67;100.00
11468;BME280;5790;42.762;23.430;2024-03-07T02:59:38;61465.97;;;-142.67;100.00
11468;BME280;5790;42.762;23.430;2024-03-07T03:02:06;61465.97;;;-142.67;100.00
11468;BME280;5790;42.762;23.430;2024-03-07T03:04:33;61465.97;;;-142.67;100.00
11468;BME280;5790;42.762;23.430;2024-03-07T03:07:00;61465.97;;;-142.67;100.00
11468;BME280;5790;42.762;23.430;2024-03-07T03:09:27;61465.97;;;-142.67;100.00
11468;BME280;5790;42.762;23.430;2024-03-07T03:11:54;61465.97;;;-142.67;100.00
11468;BME280;5790;42.762;23.430;2024-03-07T03:14:22;61465.97;;;-142.67;100.00
11468;BME280;5790;42.762;23.430;2024-03-07T03:16:49;61465.97;;;-142.67;100.00
11468;BME280;5790;42.762;23.430;2024-03-07T03:19:16;61465.97;;;-142.67;100.00
11468;BME280;5790;42.762;23.430;2024-03-07T03:21:43;61465.97;;;-142.67;100.00
11468;BME280;5790;42.762;23.430;2024-03-07T03:24:10;61465.97;;;-142.67;100.00
11468;BME280;5790;42.762;23.430;2024-03-07T03:26:37;61465.97;;;-142.67;100.00
11468;BME280;5790;42.762;23.430;2024-03-07T03:29:07;61465.97;;;-142.67;100.00
11468;BME280;5790;42.762;23.430;2024-03-07T03:31:36;61465.97;;;-142.67;100.00
11468;BME280;5790;42.762;23.430;2024-03-07T03:34:03;61465.97;;;-142.67;100.00
11468;BME280;5790;42.762;23.430;2024-03-07T03:36:30;61465.97;;;-142.67;100.00
11468;BME280;5790;42.762;23.430;2024-03-07T03:38:57;61465.97;;;-142.67;100.00
11468;BME280;5790;42.762;23.430;2024-03-07T03:41:25;61465.97;;;-142.67;100.00
11468;BME280;5790;42.762;23.430;2024-03-07T03:43:52;61465.97;;;-142.67;100.00
11468;BME280;5790;42.762;23.430;2024-03-07T03:46:19;61465.97;;;-142.67;100.00
11468;BME280;5790;42.762;23.430;2024-03-07T03:48:47;61465.97;;;-142.67;100.00
11468;BME280;5790;42.762;23.430;2024-03-07T03:51:16;61465.97;;;-142.67;100.00
11468;BME280;5790;42.762;23.430;2024-03-07T03:53:43;61465.97;;;-142.67;100.00
11468;BME280;5790;42.762;23.430;2024-03-07T03:56:10;61465.97;;;-142.67;100.00
11468;BME280;5790;42.762;23.430;2024-03-07T03:58:39;61465.97;;;-142.67;100.00
11468;BME280;5790;42.762;23.430;2024-03-07T04:01:07;61465.97;;;-142.67;100.00
11468;BME280;5790;42.762;23.430;2024-03-07T04:03:38;61465.97;;;-142.67;100.00
11468;BME280;5790;42.762;23.430;2024-03-07T04:06:07;61465.97;;;-142.67;100.00
11468;BME280;5790;42.762;23.430;2024-03-07T04:08:34;61465.97;;;-142.67;100.00
11468;BME280;5790;42.762;23.430;2024-03-07T04:11:02;61465.97;;;-142.67;100.00
11468;BME280;5790;42.762;23.430;2024-03-07T04:13:30;61465.97;;;-142.67;100.00
11468;BME280;5790;42.762;23.430;2024-03-07T04:15:57;61465.97;;;-142.67;100.00
11468;BME280;5790;42.762;23.430;2024-03-07T04:18:24;61465.97;;;-142.67;100.00
11468;BME280;5790;42.762;23.430;2024-03-07T04:20:52;61465.97;;;-142.67;100.00
11468;BME280;5790;42.762;23.430;2024-03-07T04:23:21;61465.97;;;-142.67;100.00
11468;BME280;5790;42.762;23.430;2024-03-07T04:25:48;61465.97;;;-142.67;100.00
11468;BME280;5790;42.762;23.430;2024-03-07T04:28:17;61465.97;;;-142.67;100.00
11468;BME280;5790;42.762;23.430;2024-03-07T04:30:44;61465.97;;;-142.67;100.00
11468;BME280;5790;42.762;23.430;2024-03-07T04:33:11;61465.97;;;-142.67;100.00
11468;BME280;5790;42.762;23.430;2024-03-07T04:35:39;61465.97;;;-142.67;100.00
11468;BME280;5790;42.762;23.430;2024-03-07T04:38:06;61465.97;;;-142.67;100.00
11468;BME280;5790;42.762;23.430;2024-03-07T04:40:38;61465.97;;;-142.67;100.00
11468;BME280;5790;42.762;23.430;2024-03-07T04:43:05;61465.97;;;-142.67;100.00
11468;BME280;5790;42.762;23.430;2024-03-07T04:45:33;61465.97;;;-142.67;100.00
11468;BME280;5790;42.762;23.430;2024-03-07T04:48:00;61465.97;;;-142.67;100.00
11468;BME280;5790;42.762;23.430;2024-03-07T04:50:27;61465.97;;;-142.67;100.00
11468;BME280;5790;42.762;23.430;2024-03-07T04:52:54;61465.97;;;-142.67;100.00
11468;BME280;5790;42.762;23.430;2024-03-07T04:55:21;61465.97;;;-142.67;100.00
11468;BME280;5790;42.762;23.430;2024-03-07T04:57:50;61465.97;;;-142.67;100.00
11468;BME280;5790;42.762;23.430;2024-03-07T05:00:17;61465.97;;;-142.67;100.00
11468;BME280;5790;42.762;23.430;2024-03-07T05:02:47;61465.97;;;-142.67;100.00
11468;BME280;5790;42.762;23.430;2024-03-07T05:05:14;61465.97;;;-142.67;100.00
11468;BME280;5790;42.762;23.430;2024-03-07T05:07:48;61465.97;;;-142.67;100.00
11468;BME280;5790;42.762;23.430;2024-03-07T05:10:16;61465.97;;;-142.67;100.00
11468;BME280;5790;42.762;23.430;2024-03-07T05:12:43;61465.97;;;-142.67;100.00
11468;BME280;5790;42.762;23.430;2024-03-07T05:15:11;61465.97;;;-142.67;100.00
11468;BME280;5790;42.762;23.430;2024-03-07T05:17:38;61465.97;;;-142.67;100.00
11468;BME280;5790;42.762;23.430;2024-03-07T05:20:08;61465.97;;;-142.67;100.00
11468;BME280;5790;42.762;23.430;2024-03-07T05:22:38;61465.97;;;-142.67;100.00
11468;BME280;5790;42.762;23.430;2024-03-07T05:25:06;61465.97;;;-142.67;100.00
11468;BME280;5790;42.762;23.430;2024-03-07T05:27:34;61465.97;;;-142.67;100.00
11468;BME280;5790;42.762;23.430;2024-03-07T05:30:02;61465.97;;;-142.67;100.00
11468;BME280;5790;42.762;23.430;2024-03-07T05:32:32;61465.97;;;-142.67;100.00
11468;BME280;5790;42.762;23.430;2024-03-07T05:34:59;61465.97;;;-142.67;100.00
11468;BME280;5790;42.762;23.430;2024-03-07T05:37:26;61465.97;;;-142.67;100.00
11468;BME280;5790;42.762;23.430;2024-03-07T05:39:53;61465.97;;;-142.67;100.00
11468;BME280;5790;42.762;23.430;2024-03-07T05:42:21;61465.97;;;-142.67;100.00
11468;BME280;5790;42.762;23.430;2024-03-07T05:44:50;61465.97;;;-142.67;100.00
11468;BME280;5790;42.762;23.430;2024-03-07T05:47:19;61465.97;;;-142.67;100.00
11468;BME280;5790;42.762;23.430;2024-03-07T05:49:48;61465.97;;;-142.67;100.00
11468;BME280;5790;42.762;23.430;2024-03-07T05:52:16;61465.97;;;-142.67;100.00
11468;BME280;5790;42.762;23.430;2024-03-07T05:54:43;61465.97;;;-142.67;100.00
11468;BME280;5790;42.762;23.430;2024-03-07T05:57:10;61465.97;;;-142.67;100.00
11468;BME280;5790;42.762;23.430;2024-03-07T05:59:37;61465.97;;;-142.67;100.00
11468;BME280;5790;42.762;23.430;2024-03-07T06:02:05;61465.97;;;-142.67;100.00
11468;BME280;5790;42.762;23.430;2024-03-07T06:04:32;61465.97;;;-142.67;100.00
11468;BME280;5790;42.762;23.430;2024-03-07T06:07:01;61465.97;;;-142.67;100.00
11468;BME280;5790;42.762;23.430;2024-03-07T06:09:28;61465.97;;;-142.67;100.00
11468;BME280;5790;42.762;23.430;2024-03-07T06:11:55;61465.97;;;-142.67;100.00
11468;BME280;5790;42.762;23.430;2024-03-07T06:14:22;61465.97;;;-142.67;100.00
11468;BME280;5790;42.762;23.430;2024-03-07T06:16:49;61465.97;;;-142.67;100.00
11468;BME280;5790;42.762;23.430;2024-03-07T06:19:17;61465.97;;;-142.67;100.00
11468;BME280;5790;42.762;23.430;2024-03-07T06:21:44;61465.97;;;-142.67;100.00
11468;BME280;5790;42.762;23.430;2024-03-07T06:24:13;61465.97;;;-142.67;100.00
11468;BME280;5790;42.762;23.430;2024-03-07T06:26:40;61465.97;;;-142.67;100.00
11468;BME280;5790;42.762;23.430;2024-03-07T06:29:25;61465.97;;;-142.67;100.00
11468;BME280;5790;42.762;23.430;2024-03-07T06:31:53;61465.97;;;-142.67;100.00
11468;BME280;5790;42.762;23.430;2024-03-07T06:34:20;61465.97;;;-142.67;100.00
11468;BME280;5790;42.762;23.430;2024-03-07T06:36:47;61465.97;;;-142.67;100.00
11468;BME280;5790;42.762;23.430;2024-03-07T06:39:15;61465.97;;;-142.67;100.00
11468;BME280;5790;42.762;23.430;2024-03-07T06:41:46;61465.97;;;-142.67;100.00
11468;BME280;5790;42.762;23.430;2024-03-07T06:44:13;61465.97;;;-142.67;100.00
11468;BME280;5790;42.762;23.430;2024-03-07T06:46:40;61465.97;;;-142.67;100.00
11468;BME280;5790;42.762;23.430;2024-03-07T06:49:07;61465.97;;;-142.67;100.00
11468;BME280;5790;42.762;23.430;2024-03-07T06:51:35;61465.97;;;-142.67;100.00
11468;BME280;5790;42.762;23.430;2024-03-07T06:54:03;61465.97;;;-142.67;100.00
11468;BME280;5790;42.762;23.430;2024-03-07T06:56:32;61465.97;;;-142.67;100.00
11468;BME280;5790;42.762;23.430;2024-03-07T06:58:59;61465.97;;;-142.67;100.00
11468;BME280;5790;42.762;23.430;2024-03-07T07:01:30;61465.97;;;-142.67;100.00
11468;BME280;5790;42.762;23.430;2024-03-07T07:03:57;61465.97;;;-142.67;100.00
11468;BME280;5790;42.762;23.430;2024-03-07T07:06:28;61465.97;;;-142.67;100.00
11468;BME280;5790;42.762;23.430;2024-03-07T07:08:55;61465.97;;;-142.67;100.00
11468;BME280;5790;42.762;23.430;2024-03-07T07:11:24;61465.97;;;-142.67;100.00
11468;BME280;5790;42.762;23.430;2024-03-07T07:13:52;61465.97;;;-142.67;100.00
11468;BME280;5790;42.762;23.430;2024-03-07T07:16:19;61465.97;;;-142.67;100.00
11468;BME280;5790;42.762;23.430;2024-03-07T07:18:47;61465.97;;;-142.67;100.00
11468;BME280;5790;42.762;23.430;2024-03-07T07:21:14;61465.97;;;-142.67;100.00
11468;BME280;5790;42.762;23.430;2024-03-07T07:23:41;61465.97;;;-142.67;100.00
11468;BME280;5790;42.762;23.430;2024-03-07T07:26:09;61465.97;;;-142.67;100.00
11468;BME280;5790;42.762;23.430;2024-03-07T07:28:36;61465.97;;;-142.67;100.00
11468;BME280;5790;42.762;23.430;2024-03-07T07:31:04;61465.97;;;-142.67;100.00
11468;BME280;5790;42.762;23.430;2024-03-07T07:33:31;61465.97;;;-142.67;100.00
11468;BME280;5790;42.762;23.430;2024-03-07T07:35:58;61465.97;;;-142.67;100.00
11468;BME280;5790;42.762;23.430;2024-03-07T07:38:26;61465.97;;;-142.67;100.00
11468;BME280;5790;42.762;23.430;2024-03-07T07:40:53;61465.97;;;-142.67;100.00
11468;BME280;5790;42.762;23.430;2024-03-07T07:43:20;61465.97;;;-142.67;100.00
11468;BME280;5790;42.762;23.430;2024-03-07T07:45:48;61465.97;;;-142.67;100.00
11468;BME280;5790;42.762;23.430;2024-03-07T07:48:16;61465.97;;;-142.67;100.00
11468;BME280;5790;42.762;23.430;2024-03-07T07:50:44;61465.97;;;-142.67;100.00
11468;BME280;5790;42.762;23.430;2024-03-07T07:53:11;61465.97;;;-142.67;100.00
11468;BME280;5790;42.762;23.430;2024-03-07T07:55:39;61465.97;;;-142.67;100.00
11468;BME280;5790;42.762;23.430;2024-03-07T07:58:06;61465.97;;;-142.67;100.00
11468;BME280;5790;42.762;23.430;2024-03-07T08:00:33;61465.97;;;-142.67;100.00
11468;BME280;5790;42.762;23.430;2024-03-07T08:03:01;61465.97;;;-142.67;100.00
11468;BME280;5790;42.762;23.430;2024-03-07T08:05:33;61465.97;;;-142.67;100.00
11468;BME280;5790;42.762;23.430;2024-03-07T08:08:02;61465.97;;;-142.67;100.00
11468;BME280;5790;42.762;23.430;2024-03-07T08:10:32;61465.97;;;-142.67;100.00
11468;BME280;5790;42.762;23.430;2024-03-07T08:13:00;61465.97;;;-142.67;100.00
11468;BME280;5790;42.762;23.430;2024-03-07T08:15:29;61465.97;;;-142.67;100.00
11468;BME280;5790;42.762;23.430;2024-03-07T08:17:56;61465.97;;;-142.67;100.00
11468;BME280;5790;42.762;23.430;2024-03-07T08:20:25;61465.97;;;-142.67;100.00
11468;BME280;5790;42.762;23.430;2024-03-07T08:22:54;61465.97;;;-142.67;100.00
11468;BME280;5790;42.762;23.430;2024-03-07T08:25:22;61465.97;;;-142.67;100.00
11468;BME280;5790;42.762;23.430;2024-03-07T08:27:51;61465.97;;;-142.67;100.00
11468;BME280;5790;42.762;23.430;2024-03-07T08:30:19;61465.97;;;-142.67;100.00
11468;BME280;5790;42.762;23.430;2024-03-07T08:32:47;61465.97;;;-142.67;100.00
11468;BME280;5790;42.762;23.430;2024-03-07T08:35:15;61465.97;;;-142.67;100.00
11468;BME280;5790;42.762;23.430;2024-03-07T08:37:44;61465.97;;;-142.67;100.00
11468;BME280;5790;42.762;23.430;2024-03-07T08:40:13;61465.97;;;-142.67;100.00
11468;BME280;5790;42.762;23.430;2024-03-07T08:42:46;61465.97;;;-142.67;100.00
11468;BME280;5790;42.762;23.430;2024-03-07T08:45:13;61465.97;;;-142.67;100.00
11468;BME280;5790;42.762;23.430;2024-03-07T08:47:43;61465.97;;;-142.67;100.00
11468;BME280;5790;42.762;23.430;2024-03-07T08:50:10;61465.97;;;-142.67;100.00
11468;BME280;5790;42.762;23.430;2024-03-07T08:52:39;61465.97;;;-142.67;100.00
11468;BME280;5790;42.762;23.430;2024-03-07T08:55:07;61465.97;;;-142.67;100.00
11468;BME280;5790;42.762;23.430;2024-03-07T08:57:37;61465.97;;;-142.67;100.00
11468;BME280;5790;42.762;23.430;2024-03-07T09:00:06;61465.97;;;-142.67;100.00
11468;BME280;5790;42.762;23.430;2024-03-07T09:02:35;61465.97;;;-142.67;100.00
11468;BME280;5790;42.762;23.430;2024-03-07T09:05:03;61465.97;;;-142.67;100.00
11468;BME280;5790;42.762;23.430;2024-03-07T09:07:30;61465.97;;;-142.67;100.00
11468;BME280;5790;42.762;23.430;2024-03-07T09:09:57;61465.97;;;-142.67;100.00
11468;BME280;5790;42.762;23.430;2024-03-07T09:12:25;61465.97;;;-142.67;100.00
11468;BME280;5790;42.762;23.430;2024-03-07T09:14:53;61465.97;;;-142.67;100.00
11468;BME280;5790;42.762;23.430;2024-03-07T09:17:21;61465.97;;;-142.67;100.00
11468;BME280;5790;42.762;23.430;2024-03-07T09:19:48;61465.97;;;-142.67;100.00
11468;BME280;5790;42.762;23.430;2024-03-07T09:22:15;61465.97;;;-142.67;100.00
11468;BME280;5790;42.762;23.430;2024-03-07T09:24:42;61465.97;;;-142.67;100.00
11468;BME280;5790;42.762;23.430;2024-03-07T09:27:09;61465.97;;;-142.67;100.00
11468;BME280;5790;42.762;23.430;2024-03-07T09:29:36;61465.97;;;-142.67;100.00
11468;BME280;5790;42.762;23.430;2024-03-07T09:32:05;61465.97;;;-142.67;100.00
11468;BME280;5790;42.762;23.430;2024-03-07T09:34:34;61465.97;;;-142.67;100.00
11468;BME280;5790;42.762;23.430;2024-03-07T09:37:01;61465.97;;;-142.67;100.00
11468;BME280;5790;42.762;23.430;2024-03-07T09:39:28;61465.97;;;-142.67;100.00
11468;BME280;5790;42.762;23.430;2024-03-07T09:41:57;61465.97;;;-142.67;100.00
11468;BME280;5790;42.762;23.430;2024-03-07T09:44:26;61465.97;;;-142.67;100.00
11468;BME280;5790;42.762;23.430;2024-03-07T09:46:55;61465.97;;;-142.67;100.00
11468;BME280;5790;42.762;23.430;2024-03-07T09:49:28;61465.97;;;-142.67;100.00
11468;BME280;5790;42.762;23.430;2024-03-07T09:51:55;61465.97;;;-142.67;100.00
11468;BME280;5790;42.762;23.430;2024-03-07T09:54:23;61465.97;;;-142.67;100.00
11468;BME280;5790;42.762;23.430;2024-03-07T09:56:52;61465.97;;;-142.67;100.00
11468;BME280;5790;42.762;23.430;2024-03-07T09:59:20;61465.97;;;-142.67;100.00
11468;BME280;5790;42.762;23.430;2024-03-07T10:01:48;61465.97;;;-142.67;100.00
11468;BME280;5790;42.762;23.430;2024-03-07T10:04:24;61465.97;;;-142.67;100.00
11468;BME280;5790;42.762;23.430;2024-03-07T10:06:57;61465.97;;;-142.67;100.00
11468;BME280;5790;42.762;23.430;2024-03-07T10:09:24;61465.97;;;-142.67;100.00
11468;BME280;5790;42.762;23.430;2024-03-07T10:11:56;61465.97;;;-142.67;100.00
11468;BME280;5790;42.762;23.430;2024-03-07T10:14:23;61465.97;;;-142.67;100.00
11468;BME280;5790;42.762;23.430;2024-03-07T10:16:53;61465.97;;;-142.67;100.00
11468;BME280;5790;42.762;23.430;2024-03-07T10:19:22;61465.97;;;-142.67;100.00
11468;BME280;5790;42.762;23.430;2024-03-07T10:21:49;61465.97;;;-142.67;100.00
11468;BME280;5790;42.762;23.430;2024-03-07T10:24:24;61465.97;;;-142.67;100.00
11468;BME280;5790;42.762;23.430;2024-03-07T10:26:51;61465.97;;;-142.67;100.00
11468;BME280;5790;42.762;23.430;2024-03-07T10:29:18;61465.97;;;-142.67;100.00
11468;BME280;5790;42.762;23.430;2024-03-07T10:31:46;61465.97;;;-142.67;100.00
11468;BME280;5790;42.762;23.430;2024-03-07T10:34:14;61465.97;;;-142.67;100.00
11468;BME280;5790;42.762;23.430;2024-03-07T10:36:43;61465.97;;;-142.67;100.00
11468;BME280;5790;42.762;23.430;2024-03-07T10:39:10;61465.97;;;-142.67;100.00
11468;BME280;5790;42.762;23.430;2024-03-07T10:41:44;61465.97;;;-142.67;100.00
11468;BME280;5790;42.762;23.430;2024-03-07T10:44:18;61465.97;;;-142.67;100.00
11468;BME280;5790;42.762;23.430;2024-03-07T10:46:51;61465.97;;;-142.67;100.00
11468;BME280;5790;42.762;23.430;2024-03-07T10:49:20;61465.97;;;-142.67;100.00
11468;BME280;5790;42.762;23.430;2024-03-07T10:52:02;61465.97;;;-142.67;100.00
11468;BME280;5790;42.762;23.430;2024-03-07T10:54:36;61465.97;;;-142.67;100.00
11468;BME280;5790;42.762;23.430;2024-03-07T10:57:19;61465.97;;;-142.67;100.00
11468;BME280;5790;42.762;23.430;2024-03-07T10:59:50;61465.97;;;-142.67;100.00
11468;BME280;5790;42.762;23.430;2024-03-07T11:02:27;61465.97;;;-142.67;100.00
11468;BME280;5790;42.762;23.430;2024-03-07T11:04:55;61465.97;;;-142.67;100.00
11468;BME280;5790;42.762;23.430;2024-03-07T11:07:23;61465.97;;;-142.67;100.00
11468;BME280;5790;42.762;23.430;2024-03-07T11:09:51;61465.97;;;-142.67;100.00
11468;BME280;5790;42.762;23.430;2024-03-07T11:12:21;61465.97;;;-142.67;100.00
11468;BME280;5790;42.762;23.430;2024-03-07T11:14:51;61465.97;;;-142.67;100.00
11468;BME280;5790;42.762;23.430;2024-03-07T11:17:20;61465.97;;;-142.67;100.00
11468;BME280;5790;42.762;23.430;2024-03-07T11:19:48;61465.97;;;-142.67;100.00
11468;BME280;5790;42.762;23.430;2024-03-07T11:22:28;61465.97;;;-142.67;100.00
11468;BME280;5790;42.762;23.430;2024-03-07T11:25:02;61465.97;;;-142.67;100.00
11468;BME280;5790;42.762;23.430;2024-03-07T11:27:36;61465.97;;;-142.67;100.00
11468;BME280;5790;42.762;23.430;2024-03-07T11:30:08;61465.97;;;-142.67;100.00
11468;BME280;5790;42.762;23.430;2024-03-07T11:32:38;61465.97;;;-142.67;100.00
11468;BME280;5790;42.762;23.430;2024-03-07T11:35:11;61465.97;;;-142.67;100.00
11468;BME280;5790;42.762;23.430;2024-03-07T11:37:40;61465.97;;;-142.67;100.00
11468;BME280;5790;42.762;23.430;2024-03-07T11:40:10;61465.97;;;-142.67;100.00
11468;BME280;5790;42.762;23.430;2024-03-07T11:42:46;61465.97;;;-142.67;100.00
11468;BME280;5790;42.762;23.430;2024-03-07T11:45:14;61465.97;;;-142.67;100.00
11468;BME280;5790;42.762;23.430;2024-03-07T11:47:51;61465.97;;;-142.67;100.00
11468;BME280;5790;42.762;23.430;2024-03-07T11:50:23;61465.97;;;-142.67;100.00
11468;BME280;5790;42.762;23.430;2024-03-07T11:52:52;61465.97;;;-142.67;100.00
11468;BME280;5790;42.762;23.430;2024-03-07T11:55:20;61465.97;;;-142.67;100.00
11468;BME280;5790;42.762;23.430;2024-03-07T11:57:49;61465.97;;;-142.67;100.00
11468;BME280;5790;42.762;23.430;2024-03-07T12:00:18;61465.97;;;-142.67;100.00
11468;BME280;5790;42.762;23.430;2024-03-07T12:02:45;61465.97;;;-142.67;100.00
11468;BME280;5790;42.762;23.430;2024-03-07T12:05:14;61465.97;;;-142.67;100.00
11468;BME280;5790;42.762;23.430;2024-03-07T12:07:42;61465.97;;;-142.67;100.00
11468;BME280;5790;42.762;23.430;2024-03-07T12:10:10;61465.97;;;-142.67;100.00
11468;BME280;5790;42.762;23.430;2024-03-07T12:12:36;61465.97;;;-142.67;100.00
11468;BME280;5790;42.762;23.430;2024-03-07T12:15:06;61465.97;;;-142.67;100.00
11468;BME280;5790;42.762;23.430;2024-03-07T12:17:41;61465.97;;;-142.67;100.00
11468;BME280;5790;42.762;23.430;2024-03-07T12:20:09;61465.97;;;-142.67;100.00
11468;BME280;5790;42.762;23.430;2024-03-07T12:23:06;73523.19;;;-142.66;98.27
11468;BME280;5790;42.762;23.430;2024-03-07T12:25:35;73519.09;;;-142.66;98.24
11468;BME280;5790;42.762;23.430;2024-03-07T12:28:04;73545.66;;;-142.66;97.41
11468;BME280;5790;42.762;23.430;2024-03-07T12:30:33;73531.34;;;-142.66;97.66
11468;BME280;5790;42.762;23.430;2024-03-07T12:33:01;73517.06;;;-142.66;98.96
11468;BME280;5790;42.762;23.430;2024-03-07T12:35:30;73527.28;;;-142.66;98.36
11468;BME280;5790;42.762;23.430;2024-03-07T12:37:58;73519.09;;;-142.66;98.32